Terminal Aerodrome Forecast
Issued by NWS

Home | Current Version | Previous Version | Text Only | Print | Product List | Glossary Off
Versions: 1 2 3 4 5 6 7 8 9 10 11 12 13 14 15 16 17 18 19 20 21 22 23 24 25 26

000
FTUS43 KICT 262320
TAFSLN
TAF
KSLN 262320Z 2700/2724 31008KT P6SM SCT060
     FM270200 VRB05KT P6SM FEW080
      TEMPO 2710/2714 4SM BR
     FM271800 14010KT P6SM SCT050 SCT120=

USA.gov is the U.S. government's official web portal to all federal, state and local government web resources and services.